sensor_id;sensor_type;location;lat;lon;timestamp;pressure;altitude;pressure_sealevel;temperature;humidity
45275;BME280;31019;43.780;25.948;2022-11-20T00:00:17;100522.91;;;10.53;100.00
45275;BME280;31019;43.780;25.948;2022-11-20T00:02:44;100518.19;;;10.55;100.00
45275;BME280;31019;43.780;25.948;2022-11-20T00:05:11;100520.44;;;10.51;100.00
45275;BME280;31019;43.780;25.948;2022-11-20T00:07:38;100520.41;;;10.58;100.00
45275;BME280;31019;43.780;25.948;2022-11-20T00:10:21;100529.06;;;10.47;100.00
45275;BME280;31019;43.780;25.948;2022-11-20T00:12:50;100530.44;;;10.56;100.00
45275;BME280;31019;43.780;25.948;2022-11-20T00:15:18;100537.75;;;10.67;100.00
45275;BME280;31019;43.780;25.948;2022-11-20T00:17:45;100537.28;;;10.77;100.00
45275;BME280;31019;43.780;25.948;2022-11-20T00:20:19;100526.56;;;10.97;100.00
45275;BME280;31019;43.780;25.948;2022-11-20T00:22:46;100532.97;;;10.89;100.00
45275;BME280;31019;43.780;25.948;2022-11-20T00:25:19;100530.31;;;10.89;100.00
45275;BME280;31019;43.780;25.948;2022-11-20T00:27:47;100525.56;;;10.91;100.00
45275;BME280;31019;43.780;25.948;2022-11-20T00:30:14;100523.56;;;10.87;100.00
45275;BME280;31019;43.780;25.948;2022-11-20T00:32:42;100525.97;;;10.95;100.00
45275;BME280;31019;43.780;25.948;2022-11-20T00:35:10;100531.13;;;10.90;100.00
45275;BME280;31019;43.780;25.948;2022-11-20T00:37:39;100531.88;;;10.97;100.00
45275;BME280;31019;43.780;25.948;2022-11-20T00:40:07;100541.31;;;10.93;100.00
45275;BME280;31019;43.780;25.948;2022-11-20T00:42:40;100538.81;;;11.05;100.00
45275;BME280;31019;43.780;25.948;2022-11-20T00:45:08;100527.56;;;11.03;100.00
45275;BME280;31019;43.780;25.948;2022-11-20T00:47:36;100535.53;;;11.03;100.00
45275;BME280;31019;43.780;25.948;2022-11-20T00:50:08;100524.00;;;11.15;100.00
45275;BME280;31019;43.780;25.948;2022-11-20T00:52:42;100533.44;;;11.11;100.00
45275;BME280;31019;43.780;25.948;2022-11-20T00:55:10;100523.16;;;11.21;100.00
45275;BME280;31019;43.780;25.948;2022-11-20T00:57:37;100519.34;;;11.11;100.00
45275;BME280;31019;43.780;25.948;2022-11-20T01:02:48;100508.28;;;11.14;100.00
45275;BME280;31019;43.780;25.948;2022-11-20T01:05:20;100492.09;;;11.15;100.00
45275;BME280;31019;43.780;25.948;2022-11-20T01:07:47;100495.69;;;11.03;100.00
45275;BME280;31019;43.780;25.948;2022-11-20T01:10:21;100486.91;;;11.02;100.00
45275;BME280;31019;43.780;25.948;2022-11-20T01:12:47;100475.34;;;11.15;100.00
45275;BME280;31019;43.780;25.948;2022-11-20T01:15:37;100484.56;;;11.12;100.00
45275;BME280;31019;43.780;25.948;2022-11-20T01:18:04;100466.34;;;11.16;100.00
45275;BME280;31019;43.780;25.948;2022-11-20T01:20:35;100468.00;;;11.10;100.00
45275;BME280;31019;43.780;25.948;2022-11-20T01:23:17;100462.66;;;11.17;100.00
45275;BME280;31019;43.780;25.948;2022-11-20T01:25:56;100467.31;;;11.21;100.00
45275;BME280;31019;43.780;25.948;2022-11-20T01:28:32;100457.19;;;11.12;100.00
45275;BME280;31019;43.780;25.948;2022-11-20T01:31:11;100456.00;;;11.08;100.00
45275;BME280;31019;43.780;25.948;2022-11-20T01:33:40;100455.72;;;11.16;100.00
45275;BME280;31019;43.780;25.948;2022-11-20T01:36:12;100466.50;;;11.21;100.00
45275;BME280;31019;43.780;25.948;2022-11-20T01:38:43;100463.03;;;11.20;100.00
45275;BME280;31019;43.780;25.948;2022-11-20T01:41:16;100459.59;;;11.13;100.00
45275;BME280;31019;43.780;25.948;2022-11-20T01:44:00;100456.38;;;11.11;100.00
45275;BME280;31019;43.780;25.948;2022-11-20T01:46:37;100453.59;;;11.24;100.00
45275;BME280;31019;43.780;25.948;2022-11-20T01:49:14;100446.06;;;11.21;100.00
45275;BME280;31019;43.780;25.948;2022-11-20T01:51:47;100462.88;;;11.15;100.00
45275;BME280;31019;43.780;25.948;2022-11-20T01:54:23;100464.91;;;11.20;100.00
45275;BME280;31019;43.780;25.948;2022-11-20T01:56:58;100457.47;;;11.29;100.00
45275;BME280;31019;43.780;25.948;2022-11-20T01:59:28;100477.69;;;11.30;100.00
45275;BME280;31019;43.780;25.948;2022-11-20T02:02:01;100473.44;;;11.29;100.00
45275;BME280;31019;43.780;25.948;2022-11-20T02:04:28;100462.00;;;11.21;100.00
45275;BME280;31019;43.780;25.948;2022-11-20T02:06:59;100460.56;;;11.26;100.00
45275;BME280;31019;43.780;25.948;2022-11-20T02:09:27;100461.81;;;11.23;100.00
45275;BME280;31019;43.780;25.948;2022-11-20T02:11:56;100463.41;;;11.24;100.00
45275;BME280;31019;43.780;25.948;2022-11-20T02:14:24;100447.53;;;11.17;100.00
45275;BME280;31019;43.780;25.948;2022-11-20T02:16:51;100436.63;;;11.26;100.00
45275;BME280;31019;43.780;25.948;2022-11-20T02:19:23;100443.50;;;11.33;100.00
45275;BME280;31019;43.780;25.948;2022-11-20T02:22:00;100439.38;;;11.37;100.00
45275;BME280;31019;43.780;25.948;2022-11-20T02:24:31;100448.47;;;11.30;100.00
45275;BME280;31019;43.780;25.948;2022-11-20T02:27:00;100448.03;;;11.33;100.00
45275;BME280;31019;43.780;25.948;2022-11-20T02:29:33;100437.00;;;11.29;100.00
45275;BME280;31019;43.780;25.948;2022-11-20T02:32:20;100430.66;;;11.30;100.00
45275;BME280;31019;43.780;25.948;2022-11-20T02:34:48;100428.81;;;11.31;100.00
45275;BME280;31019;43.780;25.948;2022-11-20T02:37:26;100418.59;;;11.28;100.00
45275;BME280;31019;43.780;25.948;2022-11-20T02:40:10;100422.31;;;11.27;100.00
45275;BME280;31019;43.780;25.948;2022-11-20T02:42:38;100412.59;;;11.39;100.00
45275;BME280;31019;43.780;25.948;2022-11-20T02:45:13;100420.25;;;11.29;100.00
45275;BME280;31019;43.780;25.948;2022-11-20T02:47:52;100415.75;;;11.29;100.00
45275;BME280;31019;43.780;25.948;2022-11-20T02:50:19;100413.53;;;11.26;100.00
45275;BME280;31019;43.780;25.948;2022-11-20T02:52:47;100416.19;;;11.26;100.00
45275;BME280;31019;43.780;25.948;2022-11-20T02:55:16;100403.63;;;11.33;100.00
45275;BME280;31019;43.780;25.948;2022-11-20T02:57:43;100401.72;;;11.15;100.00
45275;BME280;31019;43.780;25.948;2022-11-20T03:00:12;100411.06;;;10.99;100.00
45275;BME280;31019;43.780;25.948;2022-11-20T03:02:45;100398.38;;;11.02;100.00
45275;BME280;31019;43.780;25.948;2022-11-20T03:05:19;100404.38;;;10.90;100.00
45275;BME280;31019;43.780;25.948;2022-11-20T03:07:52;100403.06;;;10.74;100.00
45275;BME280;31019;43.780;25.948;2022-11-20T03:10:26;100399.75;;;10.79;100.00
45275;BME280;31019;43.780;25.948;2022-11-20T03:12:55;100406.25;;;10.83;100.00
45275;BME280;31019;43.780;25.948;2022-11-20T03:15:24;100401.59;;;10.78;100.00
45275;BME280;31019;43.780;25.948;2022-11-20T03:17:58;100390.25;;;10.65;100.00
45275;BME280;31019;43.780;25.948;2022-11-20T03:20:42;100396.91;;;10.81;100.00
45275;BME280;31019;43.780;25.948;2022-11-20T03:23:09;100402.19;;;10.49;100.00
45275;BME280;31019;43.780;25.948;2022-11-20T03:25:38;100399.34;;;10.44;100.00
45275;BME280;31019;43.780;25.948;2022-11-20T03:28:12;100405.75;;;10.29;100.00
45275;BME280;31019;43.780;25.948;2022-11-20T03:30:55;100400.84;;;10.33;100.00
45275;BME280;31019;43.780;25.948;2022-11-20T03:33:23;100406.34;;;10.25;100.00
45275;BME280;31019;43.780;25.948;2022-11-20T03:35:52;100407.81;;;10.21;100.00
45275;BME280;31019;43.780;25.948;2022-11-20T03:38:21;100402.53;;;10.07;100.00
45275;BME280;31019;43.780;25.948;2022-11-20T03:40:49;100426.88;;;9.98;100.00
45275;BME280;31019;43.780;25.948;2022-11-20T03:43:46;100423.22;;;9.92;100.00
45275;BME280;31019;43.780;25.948;2022-11-20T03:46:16;100420.97;;;9.89;100.00
45275;BME280;31019;43.780;25.948;2022-11-20T03:48:50;100421.19;;;9.88;100.00
45275;BME280;31019;43.780;25.948;2022-11-20T03:51:26;100413.03;;;9.82;100.00
45275;BME280;31019;43.780;25.948;2022-11-20T03:53:57;100429.38;;;9.79;100.00
45275;BME280;31019;43.780;25.948;2022-11-20T03:56:27;100432.44;;;9.76;100.00
45275;BME280;31019;43.780;25.948;2022-11-20T03:59:02;100420.81;;;9.71;100.00
45275;BME280;31019;43.780;25.948;2022-11-20T04:01:31;100428.81;;;9.57;100.00
45275;BME280;31019;43.780;25.948;2022-11-20T04:04:16;100426.75;;;9.53;100.00
45275;BME280;31019;43.780;25.948;2022-11-20T04:06:55;100433.72;;;9.34;100.00
45275;BME280;31019;43.780;25.948;2022-11-20T04:09:24;100434.72;;;9.13;100.00
45275;BME280;31019;43.780;25.948;2022-11-20T04:11:52;100444.09;;;9.22;100.00
45275;BME280;31019;43.780;25.948;2022-11-20T04:14:19;100443.69;;;9.12;100.00
45275;BME280;31019;43.780;25.948;2022-11-20T04:16:50;100459.78;;;8.97;100.00
45275;BME280;31019;43.780;25.948;2022-11-20T04:19:31;100458.53;;;8.86;100.00
45275;BME280;31019;43.780;25.948;2022-11-20T04:22:01;100470.16;;;8.92;100.00
45275;BME280;31019;43.780;25.948;2022-11-20T04:24:29;100469.34;;;8.91;100.00
45275;BME280;31019;43.780;25.948;2022-11-20T04:27:11;100475.03;;;8.88;100.00
45275;BME280;31019;43.780;25.948;2022-11-20T04:29:40;100466.69;;;8.78;100.00
45275;BME280;31019;43.780;25.948;2022-11-20T04:32:20;100459.31;;;8.67;100.00
45275;BME280;31019;43.780;25.948;2022-11-20T04:34:59;100446.47;;;8.70;100.00
45275;BME280;31019;43.780;25.948;2022-11-20T04:37:25;100453.75;;;8.55;100.00
45275;BME280;31019;43.780;25.948;2022-11-20T04:39:53;100449.69;;;8.59;100.00
45275;BME280;31019;43.780;25.948;2022-11-20T04:42:31;100449.53;;;8.67;100.00
45275;BME280;31019;43.780;25.948;2022-11-20T04:45:01;100449.91;;;8.64;100.00
45275;BME280;31019;43.780;25.948;2022-11-20T04:47:44;100454.00;;;8.60;100.00
45275;BME280;31019;43.780;25.948;2022-11-20T04:50:11;100452.59;;;8.71;100.00
45275;BME280;31019;43.780;25.948;2022-11-20T04:52:50;100454.03;;;8.74;100.00
45275;BME280;31019;43.780;25.948;2022-11-20T04:55:25;100458.31;;;8.75;100.00
45275;BME280;31019;43.780;25.948;2022-11-20T04:57:54;100474.78;;;8.70;100.00
45275;BME280;31019;43.780;25.948;2022-11-20T05:00:21;100456.47;;;8.68;100.00
45275;BME280;31019;43.780;25.948;2022-11-20T05:02:50;100455.78;;;8.53;100.00
45275;BME280;31019;43.780;25.948;2022-11-20T05:05:18;100456.56;;;8.47;100.00
45275;BME280;31019;43.780;25.948;2022-11-20T05:07:49;100451.94;;;8.56;100.00
45275;BME280;31019;43.780;25.948;2022-11-20T05:10:16;100460.91;;;8.68;100.00
45275;BME280;31019;43.780;25.948;2022-11-20T05:12:43;100455.75;;;8.46;100.00
45275;BME280;31019;43.780;25.948;2022-11-20T05:15:12;100459.78;;;8.36;100.00
45275;BME280;31019;43.780;25.948;2022-11-20T05:17:47;100460.88;;;8.48;100.00
45275;BME280;31019;43.780;25.948;2022-11-20T05:20:14;100460.66;;;8.49;100.00
45275;BME280;31019;43.780;25.948;2022-11-20T05:22:42;100456.25;;;8.63;100.00
45275;BME280;31019;43.780;25.948;2022-11-20T05:25:12;100461.53;;;8.57;100.00
45275;BME280;31019;43.780;25.948;2022-11-20T05:28:08;100459.69;;;8.64;100.00
45275;BME280;31019;43.780;25.948;2022-11-20T05:30:56;100460.34;;;8.73;100.00
45275;BME280;31019;43.780;25.948;2022-11-20T05:33:27;100471.72;;;8.66;100.00
45275;BME280;31019;43.780;25.948;2022-11-20T05:35:57;100471.72;;;8.60;100.00
45275;BME280;31019;43.780;25.948;2022-11-20T05:38:25;100496.34;;;8.54;100.00
45275;BME280;31019;43.780;25.948;2022-11-20T05:40:52;100532.56;;;8.53;100.00
45275;BME280;31019;43.780;25.948;2022-11-20T05:43:31;100549.56;;;8.79;100.00
45275;BME280;31019;43.780;25.948;2022-11-20T05:46:00;100540.19;;;8.76;100.00
45275;BME280;31019;43.780;25.948;2022-11-20T05:48:33;100545.19;;;8.51;100.00
45275;BME280;31019;43.780;25.948;2022-11-20T05:51:03;100529.91;;;8.53;100.00
45275;BME280;31019;43.780;25.948;2022-11-20T05:53:36;100534.81;;;8.21;100.00
45275;BME280;31019;43.780;25.948;2022-11-20T05:56:06;100549.53;;;8.31;100.00
45275;BME280;31019;43.780;25.948;2022-11-20T05:58:33;100560.09;;;8.31;100.00
45275;BME280;31019;43.780;25.948;2022-11-20T06:01:06;100557.47;;;8.31;100.00
45275;BME280;31019;43.780;25.948;2022-11-20T06:03:35;100573.81;;;8.41;100.00
45275;BME280;31019;43.780;25.948;2022-11-20T06:06:03;100584.69;;;8.24;100.00
45275;BME280;31019;43.780;25.948;2022-11-20T06:08:31;100574.16;;;8.03;100.00
45275;BME280;31019;43.780;25.948;2022-11-20T06:11:03;100580.88;;;7.99;100.00
45275;BME280;31019;43.780;25.948;2022-11-20T06:13:30;100589.63;;;7.99;100.00
45275;BME280;31019;43.780;25.948;2022-11-20T06:15:58;100591.50;;;8.06;100.00
45275;BME280;31019;43.780;25.948;2022-11-20T06:18:34;100593.72;;;8.02;100.00
45275;BME280;31019;43.780;25.948;2022-11-20T06:21:08;100605.91;;;8.03;100.00
45275;BME280;31019;43.780;25.948;2022-11-20T06:23:36;100622.88;;;7.87;100.00
45275;BME280;31019;43.780;25.948;2022-11-20T06:26:12;100635.59;;;7.77;100.00
45275;BME280;31019;43.780;25.948;2022-11-20T06:28:43;100640.81;;;7.70;100.00
45275;BME280;31019;43.780;25.948;2022-11-20T06:31:21;100630.69;;;7.74;100.00
45275;BME280;31019;43.780;25.948;2022-11-20T06:33:54;100645.09;;;7.71;100.00
45275;BME280;31019;43.780;25.948;2022-11-20T06:36:33;100656.19;;;7.82;100.00
45275;BME280;31019;43.780;25.948;2022-11-20T06:39:02;100663.41;;;7.51;100.00
45275;BME280;31019;43.780;25.948;2022-11-20T06:41:39;100670.97;;;7.54;100.00
45275;BME280;31019;43.780;25.948;2022-11-20T06:44:05;100681.66;;;7.68;100.00
45275;BME280;31019;43.780;25.948;2022-11-20T06:46:33;100683.75;;;7.72;100.00
45275;BME280;31019;43.780;25.948;2022-11-20T06:49:08;100702.25;;;7.72;100.00
45275;BME280;31019;43.780;25.948;2022-11-20T06:51:40;100706.06;;;7.48;100.00
45275;BME280;31019;43.780;25.948;2022-11-20T06:54:08;100715.03;;;7.32;100.00
45275;BME280;31019;43.780;25.948;2022-11-20T06:56:41;100728.38;;;7.61;100.00
45275;BME280;31019;43.780;25.948;2022-11-20T06:59:09;100753.84;;;7.68;100.00
45275;BME280;31019;43.780;25.948;2022-11-20T07:01:36;100753.75;;;7.76;100.00
45275;BME280;31019;43.780;25.948;2022-11-20T07:04:04;100763.09;;;7.57;100.00
45275;BME280;31019;43.780;25.948;2022-11-20T07:06:33;100770.00;;;7.58;100.00
45275;BME280;31019;43.780;25.948;2022-11-20T07:09:05;100760.13;;;7.82;100.00
45275;BME280;31019;43.780;25.948;2022-11-20T07:11:33;100754.06;;;7.52;100.00
45275;BME280;31019;43.780;25.948;2022-11-20T07:14:07;100750.28;;;7.40;100.00
45275;BME280;31019;43.780;25.948;2022-11-20T07:16:35;100748.88;;;7.58;100.00
45275;BME280;31019;43.780;25.948;2022-11-20T07:19:04;100742.38;;;7.61;100.00
45275;BME280;31019;43.780;25.948;2022-11-20T07:21:32;100745.44;;;7.28;100.00
45275;BME280;31019;43.780;25.948;2022-11-20T07:24:00;100757.56;;;7.38;100.00
45275;BME280;31019;43.780;25.948;2022-11-20T07:26:27;100764.38;;;7.47;100.00
45275;BME280;31019;43.780;25.948;2022-11-20T07:28:54;100766.56;;;7.43;100.00
45275;BME280;31019;43.780;25.948;2022-11-20T07:31:30;100768.91;;;7.53;100.00
45275;BME280;31019;43.780;25.948;2022-11-20T07:33:57;100749.53;;;7.31;100.00
45275;BME280;31019;43.780;25.948;2022-11-20T07:36:24;100766.84;;;7.19;100.00
45275;BME280;31019;43.780;25.948;2022-11-20T07:39:06;100782.06;;;7.17;100.00
45275;BME280;31019;43.780;25.948;2022-11-20T07:41:40;100780.44;;;7.45;100.00
45275;BME280;31019;43.780;25.948;2022-11-20T07:44:07;100763.13;;;7.43;100.00
45275;BME280;31019;43.780;25.948;2022-11-20T07:46:35;100757.47;;;7.31;100.00
45275;BME280;31019;43.780;25.948;2022-11-20T07:49:08;100764.59;;;7.30;100.00
45275;BME280;31019;43.780;25.948;2022-11-20T07:51:35;100777.94;;;7.44;100.00
45275;BME280;31019;43.780;25.948;2022-11-20T07:54:02;100768.69;;;7.48;100.00
45275;BME280;31019;43.780;25.948;2022-11-20T07:56:39;100772.50;;;7.45;100.00
45275;BME280;31019;43.780;25.948;2022-11-20T07:59:08;100795.47;;;7.45;100.00
45275;BME280;31019;43.780;25.948;2022-11-20T08:01:37;100787.78;;;7.50;100.00
45275;BME280;31019;43.780;25.948;2022-11-20T08:04:05;100777.41;;;7.63;100.00
45275;BME280;31019;43.780;25.948;2022-11-20T08:06:33;100768.31;;;7.36;100.00
45275;BME280;31019;43.780;25.948;2022-11-20T08:09:11;100761.63;;;7.55;100.00
45275;BME280;31019;43.780;25.948;2022-11-20T08:11:40;100746.16;;;7.22;100.00
45275;BME280;31019;43.780;25.948;2022-11-20T08:14:26;100746.88;;;7.46;100.00
45275;BME280;31019;43.780;25.948;2022-11-20T08:16:53;100771.69;;;7.45;100.00
45275;BME280;31019;43.780;25.948;2022-11-20T08:19:21;100757.34;;;7.69;100.00
45275;BME280;31019;43.780;25.948;2022-11-20T08:21:49;100745.16;;;7.38;100.00
45275;BME280;31019;43.780;25.948;2022-11-20T08:24:16;100745.13;;;7.53;100.00
45275;BME280;31019;43.780;25.948;2022-11-20T08:26:44;100746.81;;;7.39;100.00
45275;BME280;31019;43.780;25.948;2022-11-20T08:29:25;100750.19;;;7.48;100.00
45275;BME280;31019;43.780;25.948;2022-11-20T08:31:54;100741.88;;;7.51;100.00
45275;BME280;31019;43.780;25.948;2022-11-20T08:34:23;100739.25;;;7.36;100.00
45275;BME280;31019;43.780;25.948;2022-11-20T08:36:50;100732.50;;;7.33;100.00
45275;BME280;31019;43.780;25.948;2022-11-20T08:39:23;100744.53;;;7.36;100.00
45275;BME280;31019;43.780;25.948;2022-11-20T08:41:52;100726.75;;;7.45;100.00
45275;BME280;31019;43.780;25.948;2022-11-20T08:44:21;100719.09;;;7.35;100.00
45275;BME280;31019;43.780;25.948;2022-11-20T08:46:50;100718.91;;;7.51;100.00
45275;BME280;31019;43.780;25.948;2022-11-20T08:49:23;100719.84;;;7.65;100.00
45275;BME280;31019;43.780;25.948;2022-11-20T08:51:49;100740.91;;;7.73;100.00
45275;BME280;31019;43.780;25.948;2022-11-20T08:54:29;100756.44;;;7.47;100.00
45275;BME280;31019;43.780;25.948;2022-11-20T08:57:03;100753.34;;;7.58;100.00
45275;BME280;31019;43.780;25.948;2022-11-20T09:00:00;100740.94;;;7.58;100.00
45275;BME280;31019;43.780;25.948;2022-11-20T09:02:35;100738.28;;;7.58;100.00
45275;BME280;31019;43.780;25.948;2022-11-20T09:08:06;100739.03;;;7.52;100.00
45275;BME280;31019;43.780;25.948;2022-11-20T09:10:40;100733.66;;;7.61;100.00
45275;BME280;31019;43.780;25.948;2022-11-20T09:13:14;100735.91;;;7.64;100.00
45275;BME280;31019;43.780;25.948;2022-11-20T09:15:40;100734.72;;;7.66;100.00
45275;BME280;31019;43.780;25.948;2022-11-20T09:18:09;100749.97;;;7.86;100.00
45275;BME280;31019;43.780;25.948;2022-11-20T09:20:36;100747.22;;;7.94;100.00
45275;BME280;31019;43.780;25.948;2022-11-20T09:23:20;100740.38;;;7.99;100.00
45275;BME280;31019;43.780;25.948;2022-11-20T09:25:49;100735.09;;;7.99;100.00
45275;BME280;31019;43.780;25.948;2022-11-20T09:28:25;100729.84;;;8.06;100.00
45275;BME280;31019;43.780;25.948;2022-11-20T09:30:54;100705.84;;;8.08;100.00
45275;BME280;31019;43.780;25.948;2022-11-20T09:33:23;100708.19;;;8.17;100.00
45275;BME280;31019;43.780;25.948;2022-11-20T09:35:50;100698.38;;;8.11;100.00
45275;BME280;31019;43.780;25.948;2022-11-20T09:38:18;100689.22;;;8.14;100.00
45275;BME280;31019;43.780;25.948;2022-11-20T09:40:56;100692.06;;;8.12;100.00
45275;BME280;31019;43.780;25.948;2022-11-20T09:43:46;100690.41;;;8.33;100.00
45275;BME280;31019;43.780;25.948;2022-11-20T09:46:25;100691.94;;;8.20;100.00
45275;BME280;31019;43.780;25.948;2022-11-20T09:49:07;100676.38;;;8.32;100.00
45275;BME280;31019;43.780;25.948;2022-11-20T09:51:46;100676.53;;;8.31;100.00
45275;BME280;31019;43.780;25.948;2022-11-20T09:54:18;100659.81;;;8.23;100.00
45275;BME280;31019;43.780;25.948;2022-11-20T09:56:55;100656.88;;;8.40;100.00
45275;BME280;31019;43.780;25.948;2022-11-20T09:59:35;100648.19;;;8.46;100.00
45275;BME280;31019;43.780;25.948;2022-11-20T10:02:23;100632.28;;;8.46;100.00
45275;BME280;31019;43.780;25.948;2022-11-20T10:04:55;100626.84;;;8.54;100.00
45275;BME280;31019;43.780;25.948;2022-11-20T10:07:28;100629.22;;;8.42;100.00
45275;BME280;31019;43.780;25.948;2022-11-20T10:09:57;100632.81;;;8.63;100.00
45275;BME280;31019;43.780;25.948;2022-11-20T10:12:34;100642.38;;;8.64;100.00
45275;BME280;31019;43.780;25.948;2022-11-20T10:15:13;100652.59;;;8.67;100.00
45275;BME280;31019;43.780;25.948;2022-11-20T10:17:59;100659.91;;;8.65;100.00
45275;BME280;31019;43.780;25.948;2022-11-20T10:20:37;100658.66;;;8.61;100.00
45275;BME280;31019;43.780;25.948;2022-11-20T10:23:27;100657.69;;;8.68;100.00
45275;BME280;31019;43.780;25.948;2022-11-20T10:26:01;100663.44;;;8.79;100.00
45275;BME280;31019;43.780;25.948;2022-11-20T10:28:38;100667.28;;;8.69;100.00
45275;BME280;31019;43.780;25.948;2022-11-20T10:31:17;100665.78;;;8.95;100.00
45275;BME280;31019;43.780;25.948;2022-11-20T10:33:48;100670.97;;;8.75;100.00
45275;BME280;31019;43.780;25.948;2022-11-20T10:36:21;100658.47;;;9.04;100.00
45275;BME280;31019;43.780;25.948;2022-11-20T10:38:56;100656.03;;;9.02;100.00
45275;BME280;31019;43.780;25.948;2022-11-20T10:41:28;100654.69;;;8.78;100.00
45275;BME280;31019;43.780;25.948;2022-11-20T10:44:02;100673.66;;;9.23;100.00
45275;BME280;31019;43.780;25.948;2022-11-20T10:46:41;100682.47;;;8.95;100.00
45275;BME280;31019;43.780;25.948;2022-11-20T10:49:13;100688.94;;;9.28;100.00
45275;BME280;31019;43.780;25.948;2022-11-20T10:51:51;100693.06;;;9.37;100.00
45275;BME280;31019;43.780;25.948;2022-11-20T10:54:29;100697.69;;;9.22;100.00
45275;BME280;31019;43.780;25.948;2022-11-20T10:57:06;100689.19;;;9.39;100.00
45275;BME280;31019;43.780;25.948;2022-11-20T10:59:59;100689.22;;;9.46;100.00
45275;BME280;31019;43.780;25.948;2022-11-20T11:02:39;100685.63;;;9.12;100.00
45275;BME280;31019;43.780;25.948;2022-11-20T11:05:32;100691.78;;;10.81;100.00
45275;BME280;31019;43.780;25.948;2022-11-20T11:08:03;100701.00;;;9.37;100.00
45275;BME280;31019;43.780;25.948;2022-11-20T11:10:36;100698.19;;;9.38;100.00
45275;BME280;31019;43.780;25.948;2022-11-20T11:13:19;100693.22;;;9.29;100.00
45275;BME280;31019;43.780;25.948;2022-11-20T11:15:51;100690.41;;;9.30;100.00
45275;BME280;31019;43.780;25.948;2022-11-20T11:18:27;100687.78;;;9.44;100.00
45275;BME280;31019;43.780;25.948;2022-11-20T11:20:56;100704.06;;;9.34;100.00
45275;BME280;31019;43.780;25.948;2022-11-20T11:23:32;100695.53;;;9.38;100.00
45275;BME280;31019;43.780;25.948;2022-11-20T11:26:03;100698.13;;;9.32;100.00
45275;BME280;31019;43.780;25.948;2022-11-20T11:28:38;100687.16;;;9.35;100.00
45275;BME280;31019;43.780;25.948;2022-11-20T11:31:08;100682.47;;;9.37;100.00
45275;BME280;31019;43.780;25.948;2022-11-20T11:33:42;100682.28;;;9.45;100.00
45275;BME280;31019;43.780;25.948;2022-11-20T11:36:18;100684.72;;;9.40;100.00
45275;BME280;31019;43.780;25.948;2022-11-20T11:38:50;100675.94;;;9.39;100.00
45275;BME280;31019;43.780;25.948;2022-11-20T11:41:22;100683.50;;;9.43;100.00
45275;BME280;31019;43.780;25.948;2022-11-20T11:43:53;100692.13;;;9.64;100.00
45275;BME280;31019;43.780;25.948;2022-11-20T11:46:44;100705.81;;;9.13;100.00
45275;BME280;31019;43.780;25.948;2022-11-20T11:49:18;100711.97;;;9.21;100.00
45275;BME280;31019;43.780;25.948;2022-11-20T11:52:01;100717.72;;;9.37;100.00
45275;BME280;31019;43.780;25.948;2022-11-20T11:54:35;100721.16;;;9.25;100.00
45275;BME280;31019;43.780;25.948;2022-11-20T11:57:11;100722.19;;;9.24;100.00
45275;BME280;31019;43.780;25.948;2022-11-20T11:59:49;100715.22;;;9.23;100.00
45275;BME280;31019;43.780;25.948;2022-11-20T12:02:31;100734.75;;;9.08;100.00
45275;BME280;31019;43.780;25.948;2022-11-20T12:05:10;100722.78;;;9.26;100.00
45275;BME280;31019;43.780;25.948;2022-11-20T12:07:45;100719.44;;;9.10;100.00
45275;BME280;31019;43.780;25.948;2022-11-20T12:10:21;100714.81;;;9.19;100.00
45275;BME280;31019;43.780;25.948;2022-11-20T12:12:53;100718.44;;;9.11;100.00
45275;BME280;31019;43.780;25.948;2022-11-20T12:15:29;100712.91;;;9.06;100.00
45275;BME280;31019;43.780;25.948;2022-11-20T12:17:56;100707.19;;;9.03;100.00
45275;BME280;31019;43.780;25.948;2022-11-20T12:20:29;100705.78;;;9.07;100.00
45275;BME280;31019;43.780;25.948;2022-11-20T12:23:13;100732.28;;;8.72;100.00
45275;BME280;31019;43.780;25.948;2022-11-20T12:25:53;100733.47;;;9.04;100.00
45275;BME280;31019;43.780;25.948;2022-11-20T12:28:38;100717.69;;;9.24;100.00
45275;BME280;31019;43.780;25.948;2022-11-20T12:31:18;100728.69;;;8.86;100.00
45275;BME280;31019;43.780;25.948;2022-11-20T12:33:56;100733.78;;;8.88;100.00
45275;BME280;31019;43.780;25.948;2022-11-20T12:36:38;100740.00;;;9.02;100.00
45275;BME280;31019;43.780;25.948;2022-11-20T12:39:35;100741.84;;;8.73;100.00
45275;BME280;31019;43.780;25.948;2022-11-20T12:42:27;100739.66;;;9.11;100.00
45275;BME280;31019;43.780;25.948;2022-11-20T12:48:47;100726.97;;;9.07;100.00
45275;BME280;31019;43.780;25.948;2022-11-20T12:51:39;100708.06;;;9.16;100.00
45275;BME280;31019;43.780;25.948;2022-11-20T12:54:32;100697.44;;;9.10;100.00
45275;BME280;31019;43.780;25.948;2022-11-20T12:57:07;100690.88;;;8.99;100.00
45275;BME280;31019;43.780;25.948;2022-11-20T12:59:51;100695.69;;;8.89;100.00
45275;BME280;31019;43.780;25.948;2022-11-20T13:02:31;100696.59;;;9.03;100.00
45275;BME280;31019;43.780;25.948;2022-11-20T13:05:18;100682.47;;;8.95;100.00
45275;BME280;31019;43.780;25.948;2022-11-20T13:07:50;100688.34;;;8.84;100.00
45275;BME280;31019;43.780;25.948;2022-11-20T13:10:23;100677.66;;;8.71;100.00
45275;BME280;31019;43.780;25.948;2022-11-20T13:13:00;100677.97;;;8.89;100.00
45275;BME280;31019;43.780;25.948;2022-11-20T13:15:39;100669.84;;;8.91;100.00
45275;BME280;31019;43.780;25.948;2022-11-20T13:18:11;100670.50;;;8.65;100.00